createdAt,value
2019-02-11T00:01:56.936Z,4.48
2019-02-11T00:04:26.305Z,4.44
2019-02-11T00:06:55.752Z,4.54
2019-02-11T00:09:25.110Z,4.40
2019-02-11T00:11:54.514Z,4.33
2019-02-11T00:14:23.973Z,4.38
2019-02-11T00:16:53.374Z,4.34
2019-02-11T00:19:22.744Z,4.19
2019-02-11T00:21:52.118Z,3.96
2019-02-11T00:24:21.579Z,3.90
2019-02-11T00:26:50.977Z,4.12
2019-02-11T00:29:20.429Z,4.25
2019-02-11T00:31:49.833Z,4.27
2019-02-11T00:34:19.213Z,4.33
2019-02-11T00:36:48.589Z,4.25
2019-02-11T00:39:18.040Z,4.25
2019-02-11T00:41:47.421Z,4.31
2019-02-11T00:44:16.857Z,4.19
2019-02-11T00:46:46.224Z,4.21
2019-02-11T00:49:15.601Z,4.36
2019-02-11T00:51:45.075Z,4.39
2019-02-11T00:54:14.495Z,4.39
2019-02-11T00:56:43.883Z,4.37
2019-02-11T00:59:13.374Z,4.15
2019-02-11T01:01:42.804Z,3.98
2019-02-11T01:04:12.230Z,4.07
2019-02-11T01:06:41.637Z,4.16
2019-02-11T01:09:10.991Z,4.18
2019-02-11T01:11:40.454Z,4.21
2019-02-11T01:14:09.846Z,4.18
2019-02-11T01:16:39.293Z,4.05
2019-02-11T01:19:08.734Z,3.93
2019-02-11T01:21:38.217Z,3.11
2019-02-11T01:24:07.591Z,3.97
2019-02-11T01:26:37.036Z,3.83
2019-02-11T01:29:06.492Z,3.83
2019-02-11T01:31:35.939Z,3.70
2019-02-11T01:34:05.425Z,3.69
2019-02-11T01:36:34.904Z,3.76
2019-02-11T01:39:05.564Z,3.62
2019-02-11T01:41:35.018Z,3.62
2019-02-11T01:44:04.456Z,3.52
2019-02-11T01:46:33.911Z,3.49
2019-02-11T01:49:03.409Z,3.65
2019-02-11T01:51:32.860Z,4.90
2019-02-11T01:54:02.299Z,4.31
2019-02-11T01:56:31.719Z,3.77
2019-02-11T01:59:01.120Z,3.43
2019-02-11T02:01:30.495Z,3.24
2019-02-11T02:03:59.978Z,3.42
2019-02-11T02:06:29.427Z,3.47
2019-02-11T02:08:59.224Z,3.45
2019-02-11T02:11:28.645Z,3.24
2019-02-11T02:13:58.072Z,3.27
2019-02-11T02:16:27.531Z,3.03
2019-02-11T02:18:56.982Z,3.03
2019-02-11T02:21:26.399Z,3.03
2019-02-11T02:23:55.864Z,3.26
2019-02-11T02:26:25.257Z,3.29
2019-02-11T02:28:54.705Z,3.29
2019-02-11T02:31:24.170Z,3.24
2019-02-11T02:33:53.532Z,3.24
2019-02-11T02:36:22.893Z,3.15
2019-02-11T02:38:52.343Z,3.24
2019-02-11T02:41:21.769Z,3.24
2019-02-11T02:43:55.732Z,3.27
2019-02-11T02:46:22.334Z,3.29
2019-02-11T02:48:51.703Z,3.01
2019-02-11T02:51:21.144Z,3.01
2019-02-11T02:53:50.607Z,3.06
2019-02-11T02:56:20.477Z,2.96
2019-02-11T02:58:49.880Z,2.81
2019-02-11T03:01:19.274Z,2.65
2019-02-11T03:03:48.774Z,2.65
2019-02-11T03:06:18.387Z,2.77
2019-02-11T03:08:47.855Z,2.77
2019-02-11T03:11:17.283Z,2.71
2019-02-11T03:13:46.741Z,2.71
2019-02-11T03:16:16.140Z,2.62
2019-02-11T03:18:45.617Z,2.65
2019-02-11T03:21:15.061Z,2.85
2019-02-11T03:23:44.491Z,2.85
2019-02-11T03:26:13.929Z,2.70
2019-02-11T03:28:43.305Z,2.53
2019-02-11T03:31:12.688Z,2.25
2019-02-11T03:33:42.122Z,2.12
2019-02-11T03:36:11.493Z,1.97
2019-02-11T03:38:41.355Z,2.15
2019-02-11T03:41:11.203Z,2.20
2019-02-11T03:43:40.625Z,2.09
2019-02-11T03:46:09.949Z,2.05
2019-02-11T03:48:39.362Z,2.18
2019-02-11T03:51:09.233Z,2.28
2019-02-11T03:53:38.631Z,2.36
2019-02-11T03:56:08.061Z,2.33
2019-02-11T03:58:37.458Z,2.46
2019-02-11T04:01:06.881Z,2.57
2019-02-11T04:03:36.245Z,2.71
2019-02-11T04:06:05.663Z,2.80
2019-02-11T04:08:35.099Z,2.85
2019-02-11T04:11:04.645Z,2.90
2019-02-11T04:13:34.072Z,2.86
2019-02-11T04:16:03.523Z,2.85
2019-02-11T04:18:32.910Z,1.78
2019-02-11T04:21:02.324Z,2.52
2019-02-11T04:23:31.767Z,2.52
2019-02-11T04:26:01.203Z,2.39
2019-02-11T04:28:30.657Z,2.44
2019-02-11T04:31:00.065Z,2.56
2019-02-11T04:33:29.532Z,2.64
2019-02-11T04:35:58.867Z,2.56
2019-02-11T04:38:28.271Z,2.29
2019-02-11T04:40:57.624Z,2.28
2019-02-11T04:43:27.043Z,2.12
2019-02-11T04:45:56.429Z,1.98
2019-02-11T04:48:25.834Z,2.09
2019-02-11T04:50:55.254Z,2.13
2019-02-11T04:53:24.616Z,2.26
2019-02-11T04:55:54.057Z,1.94
2019-02-11T04:58:23.505Z,1.74
2019-02-11T05:00:52.881Z,1.83
2019-02-11T05:03:22.272Z,1.99
2019-02-11T05:05:53.195Z,2.14
2019-02-11T05:08:22.665Z,2.12
2019-02-11T05:10:52.134Z,2.09
2019-02-11T05:13:21.507Z,2.18
2019-02-11T05:15:50.857Z,2.18
2019-02-11T05:18:20.262Z,2.22
2019-02-11T05:20:49.696Z,2.23
2019-02-11T05:23:19.107Z,2.32
2019-02-11T05:25:48.585Z,2.24
2019-02-11T05:28:17.994Z,2.07
2019-02-11T05:30:47.496Z,1.92
2019-02-11T05:33:16.949Z,1.87
2019-02-11T05:35:46.358Z,1.89
2019-02-11T05:38:15.682Z,1.81
2019-02-11T05:40:45.038Z,1.68
2019-02-11T05:43:14.473Z,1.68
2019-02-11T05:45:43.992Z,1.57
2019-02-11T05:48:13.442Z,1.54
2019-02-11T05:50:42.817Z,1.50
2019-02-11T05:53:12.330Z,1.34
2019-02-11T05:55:41.710Z,1.36
2019-02-11T05:58:11.479Z,1.48
2019-02-11T06:00:40.848Z,1.54
2019-02-11T06:03:10.255Z,1.57
2019-02-11T06:05:40.641Z,1.86
2019-02-11T06:08:10.029Z,2.02
2019-02-11T06:10:39.441Z,2.28
2019-02-11T06:13:08.823Z,2.48
2019-02-11T06:15:38.184Z,2.69
2019-02-11T06:18:07.639Z,3.25
2019-02-11T06:20:37.015Z,3.89
2019-02-11T06:23:06.460Z,4.59
2019-02-11T06:25:35.869Z,4.59
2019-02-11T06:28:05.227Z,5.32
2019-02-11T06:30:34.674Z,5.45
2019-02-11T06:33:04.038Z,5.83
2019-02-11T06:35:33.894Z,6.23
2019-02-11T06:38:03.317Z,6.57
2019-02-11T06:40:32.851Z,6.38
2019-02-11T06:43:02.189Z,5.88
2019-02-11T06:45:31.580Z,5.27
2019-02-11T06:48:01.008Z,4.92
2019-02-11T06:50:30.405Z,4.65
2019-02-11T06:52:59.965Z,4.61
2019-02-11T06:55:29.533Z,4.64
2019-02-11T06:57:58.873Z,5.04
2019-02-11T07:00:28.720Z,4.91
2019-02-11T07:02:58.125Z,4.34
2019-02-11T07:05:27.537Z,4.11
2019-02-11T07:07:57.085Z,4.10
2019-02-11T07:10:26.477Z,4.15
2019-02-11T07:12:55.963Z,4.09
2019-02-11T07:15:25.331Z,4.82
2019-02-11T07:17:54.829Z,5.81
2019-02-11T07:20:24.194Z,5.85
2019-02-11T07:22:53.666Z,5.83
2019-02-11T07:25:23.099Z,6.11
2019-02-11T07:27:52.559Z,6.75
2019-02-11T07:30:22.031Z,6.59
2019-02-11T07:32:51.408Z,6.49
2019-02-11T07:35:20.844Z,6.32
2019-02-11T07:37:50.307Z,6.31
2019-02-11T07:40:20.032Z,5.96
2019-02-11T07:42:59.709Z,5.48
2019-02-11T07:45:37.634Z,5.55
2019-02-11T07:48:07.037Z,5.39
2019-02-11T07:50:36.432Z,5.98
2019-02-11T07:53:05.869Z,6.21
2019-02-11T07:55:35.234Z,6.63
2019-02-11T07:58:04.628Z,7.42
2019-02-11T08:00:34.166Z,7.87
2019-02-11T08:03:03.541Z,8.11
2019-02-11T08:05:33.004Z,7.61
2019-02-11T08:08:02.440Z,7.00
2019-02-11T08:10:31.879Z,7.13
2019-02-11T08:13:01.314Z,7.08
2019-02-11T08:15:38.234Z,7.34
2019-02-11T08:18:01.831Z,7.66
2019-02-11T08:20:31.201Z,7.76
2019-02-11T08:23:00.616Z,7.98
2019-02-11T08:25:30.125Z,8.24
2019-02-11T08:27:59.617Z,8.92
2019-02-11T08:30:29.078Z,8.87
2019-02-11T08:32:58.455Z,8.70
2019-02-11T08:35:29.077Z,8.62
2019-02-11T08:37:58.683Z,8.40
2019-02-11T08:40:28.102Z,9.54
2019-02-11T08:42:57.556Z,9.50
2019-02-11T08:45:26.941Z,9.01
2019-02-11T08:47:57.634Z,9.15
2019-02-11T08:50:27.039Z,9.59
2019-02-11T08:52:56.452Z,10.18
2019-02-11T08:55:25.912Z,10.42
2019-02-11T08:57:55.294Z,10.55
2019-02-11T09:00:24.735Z,10.67
2019-02-11T09:02:54.088Z,10.54
2019-02-11T09:05:23.478Z,10.46
2019-02-11T09:07:52.938Z,9.39
2019-02-11T09:10:22.364Z,8.97
2019-02-11T09:12:51.788Z,9.69
2019-02-11T09:15:21.291Z,10.18
2019-02-11T09:17:50.689Z,10.10
2019-02-11T09:20:20.050Z,10.18
2019-02-11T09:22:49.577Z,9.13
2019-02-11T09:25:19.064Z,8.89
2019-02-11T09:27:48.485Z,9.13
2019-02-11T09:30:17.962Z,9.20
2019-02-11T09:32:47.806Z,8.79
2019-02-11T09:35:17.215Z,8.80
2019-02-11T09:37:46.550Z,9.17
2019-02-11T09:40:16.809Z,9.44
2019-02-11T09:42:46.212Z,9.39
2019-02-11T09:45:18.505Z,9.45
2019-02-11T09:47:47.892Z,9.09
2019-02-11T09:50:23.206Z,8.84
2019-02-11T09:52:52.559Z,8.94
2019-02-11T09:55:27.414Z,9.14
2019-02-11T09:57:56.843Z,8.97
2019-02-11T10:00:26.717Z,8.87
2019-02-11T10:02:56.092Z,8.87
2019-02-11T10:05:25.995Z,8.87
2019-02-11T10:07:55.460Z,8.92
2019-02-11T10:10:24.809Z,8.82
2019-02-11T10:12:54.357Z,8.75
2019-02-11T10:15:23.864Z,8.90
2019-02-11T10:17:53.819Z,8.92
2019-02-11T10:20:23.271Z,9.08
2019-02-11T10:22:52.676Z,9.23
2019-02-11T10:25:23.894Z,8.90
2019-02-11T10:27:54.718Z,8.65
2019-02-11T10:30:24.517Z,8.68
2019-02-11T10:32:53.945Z,8.55
2019-02-11T10:35:23.303Z,8.28
2019-02-11T10:37:52.682Z,8.35
2019-02-11T10:40:22.051Z,8.66
2019-02-11T10:42:51.460Z,8.80
2019-02-11T10:45:20.820Z,8.92
2019-02-11T10:47:50.468Z,8.97
2019-02-11T10:50:20.068Z,9.00
2019-02-11T10:52:49.489Z,8.91
2019-02-11T10:55:18.927Z,8.91
2019-02-11T11:01:27.585Z,9.19
2019-02-11T11:03:56.978Z,9.18
2019-02-11T11:06:26.446Z,9.21
2019-02-11T11:08:55.883Z,9.14
2019-02-11T11:11:25.354Z,9.26
2019-02-11T11:13:54.784Z,9.32
2019-02-11T11:16:29.344Z,9.30
2019-02-11T11:18:55.380Z,9.25
2019-02-11T11:21:34.438Z,9.36
2019-02-11T11:24:03.865Z,9.41
2019-02-11T11:26:33.330Z,9.37
2019-02-11T11:29:02.906Z,9.37
2019-02-11T11:31:32.360Z,9.31
2019-02-11T11:34:01.872Z,9.29
2019-02-11T11:36:31.313Z,9.13
2019-02-11T11:39:00.791Z,9.00
2019-02-11T11:41:30.579Z,8.98
2019-02-11T11:43:59.999Z,9.03
2019-02-11T11:46:38.523Z,9.02
2019-02-11T11:49:02.943Z,9.02
2019-02-11T11:51:32.360Z,9.09
2019-02-11T11:54:01.818Z,9.13
2019-02-11T11:56:31.259Z,9.17
2019-02-11T11:59:00.806Z,9.17
2019-02-11T12:01:30.193Z,9.06
2019-02-11T12:03:59.587Z,9.06
2019-02-11T12:06:29.115Z,9.02
2019-02-11T12:08:59.385Z,9.07
2019-02-11T12:11:29.149Z,9.11
2019-02-11T12:13:58.544Z,9.10
2019-02-11T12:16:27.939Z,9.17
2019-02-11T12:18:57.353Z,9.11
2019-02-11T12:21:26.840Z,9.22
2019-02-11T12:23:56.276Z,9.30
2019-02-11T12:26:25.655Z,9.36
2019-02-11T12:28:55.193Z,9.33
2019-02-11T12:31:24.592Z,9.33
2019-02-11T12:33:54.023Z,9.30
2019-02-11T12:36:23.497Z,9.26
2019-02-11T12:38:52.920Z,9.43
2019-02-11T12:41:22.373Z,9.61
2019-02-11T12:43:51.733Z,9.70
2019-02-11T12:46:23.256Z,9.82
2019-02-11T12:48:52.301Z,10.06
2019-02-11T12:51:21.669Z,10.34
2019-02-11T12:53:51.091Z,10.51
2019-02-11T12:56:20.464Z,10.68
2019-02-11T12:58:49.836Z,10.87
2019-02-11T13:01:19.175Z,10.77
2019-02-11T13:03:48.777Z,10.92
2019-02-11T13:06:18.190Z,10.98
2019-02-11T13:08:47.691Z,11.09
2019-02-11T13:11:17.189Z,11.09
2019-02-11T13:13:46.669Z,10.75
2019-02-11T13:16:16.113Z,10.78
2019-02-11T13:18:45.555Z,11.08
2019-02-11T13:21:15.355Z,11.44
2019-02-11T13:23:44.872Z,11.92
2019-02-11T13:26:14.304Z,12.52
2019-02-11T13:28:43.644Z,13.02
2019-02-11T13:31:13.023Z,13.06
2019-02-11T13:33:42.522Z,12.88
2019-02-11T13:36:12.021Z,12.48
2019-02-11T13:38:41.785Z,12.04
2019-02-11T13:41:11.248Z,11.86
2019-02-11T13:43:40.733Z,11.77
2019-02-11T13:46:10.219Z,11.69
2019-02-11T13:48:39.633Z,11.55
2019-02-11T13:51:09.021Z,11.63
2019-02-11T13:53:38.331Z,11.70
2019-02-11T13:56:07.842Z,11.40
2019-02-11T13:58:37.240Z,11.33
2019-02-11T14:01:09.822Z,11.16
2019-02-11T14:03:39.243Z,10.99
2019-02-11T14:06:08.799Z,10.90
2019-02-11T14:08:38.354Z,10.92
2019-02-11T14:11:08.034Z,10.88
2019-02-11T14:13:37.420Z,10.95
2019-02-11T14:16:06.864Z,10.98
2019-02-11T14:18:36.228Z,11.05
2019-02-11T14:21:06.191Z,11.15
2019-02-11T14:23:35.638Z,11.12
2019-02-11T14:26:05.073Z,11.10
2019-02-11T14:28:34.418Z,11.06
2019-02-11T14:31:03.843Z,11.03
2019-02-11T14:33:33.289Z,11.07
2019-02-11T14:36:05.382Z,11.10
2019-02-11T14:38:33.728Z,11.07
2019-02-11T14:41:03.117Z,11.06
2019-02-11T14:43:32.492Z,11.00
2019-02-11T14:46:01.979Z,10.96
2019-02-11T14:48:31.336Z,10.93
2019-02-11T14:51:00.743Z,10.92
2019-02-11T14:53:30.142Z,10.91
2019-02-11T14:55:59.466Z,10.86
2019-02-11T14:58:28.835Z,10.84
2019-02-11T15:00:58.210Z,10.81
2019-02-11T15:03:27.631Z,10.78
2019-02-11T15:05:57.010Z,10.81
2019-02-11T15:08:26.418Z,10.78
2019-02-11T15:10:55.854Z,10.69
2019-02-11T15:13:25.262Z,10.63
2019-02-11T15:15:54.696Z,10.62
2019-02-11T15:18:24.121Z,10.65
2019-02-11T15:20:53.569Z,10.61
2019-02-11T15:23:22.926Z,10.61
2019-02-11T15:25:52.348Z,10.65
2019-02-11T15:28:21.739Z,10.60
2019-02-11T15:30:51.062Z,10.63
2019-02-11T15:33:20.461Z,10.69
2019-02-11T15:35:49.883Z,10.70
2019-02-11T15:38:19.199Z,10.72
2019-02-11T15:40:48.504Z,11.26
2019-02-11T15:43:17.978Z,11.73
2019-02-11T15:45:47.450Z,12.06
2019-02-11T15:48:16.860Z,11.97
2019-02-11T15:50:46.261Z,11.81
2019-02-11T15:53:15.657Z,11.84
2019-02-11T15:55:45.042Z,12.07
2019-02-11T15:58:14.408Z,12.14
2019-02-11T16:00:43.808Z,12.15
2019-02-11T16:03:13.158Z,12.22
2019-02-11T16:05:49.524Z,12.34
2019-02-11T16:08:13.586Z,12.41
2019-02-11T16:10:42.941Z,12.32
2019-02-11T16:13:12.403Z,12.36
2019-02-11T16:15:41.733Z,12.43
2019-02-11T16:18:11.132Z,12.40
2019-02-11T16:20:40.559Z,12.35
2019-02-11T16:23:09.972Z,12.33
2019-02-11T16:25:39.363Z,12.12
2019-02-11T16:28:08.725Z,11.80
2019-02-11T16:30:38.081Z,11.55
2019-02-11T16:33:07.396Z,11.41
2019-02-11T16:35:36.895Z,10.97
2019-02-11T16:38:06.346Z,10.57
2019-02-11T16:40:35.821Z,10.13
2019-02-11T16:43:05.244Z,9.70
2019-02-11T16:45:34.738Z,9.51
2019-02-11T16:48:04.250Z,9.47
2019-02-11T16:50:33.649Z,9.43
2019-02-11T16:53:03.125Z,9.38
2019-02-11T16:55:32.490Z,9.38
2019-02-11T16:58:01.953Z,9.27
2019-02-11T17:00:31.256Z,9.37
2019-02-11T17:03:00.648Z,9.40
2019-02-11T17:05:30.054Z,9.37
2019-02-11T17:07:59.406Z,9.38
2019-02-11T17:10:28.877Z,9.43
2019-02-11T17:12:58.319Z,9.40
2019-02-11T17:15:27.719Z,9.46
2019-02-11T17:17:57.190Z,9.45
2019-02-11T17:20:26.576Z,9.30
2019-02-11T17:22:55.998Z,9.13
2019-02-11T17:25:25.469Z,8.91
2019-02-11T17:27:54.889Z,8.62
2019-02-11T17:30:25.784Z,8.36
2019-02-11T17:32:55.278Z,8.17
2019-02-11T17:35:24.723Z,8.03
2019-02-11T17:37:54.158Z,7.95
2019-02-11T17:40:23.553Z,7.86
2019-02-11T17:42:53.034Z,7.79
2019-02-11T17:45:24.228Z,7.79
2019-02-11T17:47:53.687Z,7.75
2019-02-11T17:50:23.105Z,7.75
2019-02-11T17:52:53.175Z,7.72
2019-02-11T17:55:22.744Z,7.71
2019-02-11T17:57:53.627Z,7.68
2019-02-11T18:00:31.009Z,7.69
2019-02-11T18:03:00.393Z,7.70
2019-02-11T18:05:29.765Z,7.68
2019-02-11T18:07:59.114Z,7.71
2019-02-11T18:10:28.524Z,7.70
2019-02-11T18:12:58.238Z,7.67
2019-02-11T18:15:27.596Z,7.56
2019-02-11T18:17:57.007Z,7.56
2019-02-11T18:20:26.373Z,7.56
2019-02-11T18:22:55.746Z,7.58
2019-02-11T18:25:25.602Z,7.62
2019-02-11T18:27:54.961Z,7.62
2019-02-11T18:30:24.355Z,7.63
2019-02-11T18:32:53.814Z,7.64
2019-02-11T18:35:23.234Z,7.65
2019-02-11T18:37:52.638Z,7.62
2019-02-11T18:40:21.949Z,7.64
2019-02-11T18:42:52.625Z,7.66
2019-02-11T18:45:22.060Z,7.64
2019-02-11T18:47:51.439Z,7.64
2019-02-11T18:50:20.782Z,7.66
2019-02-11T18:52:50.254Z,7.66
2019-02-11T18:55:19.842Z,7.70
2019-02-11T18:57:49.210Z,7.67
2019-02-11T19:00:19.240Z,7.65
2019-02-11T19:02:49.670Z,7.66
2019-02-11T19:05:19.395Z,7.61
2019-02-11T19:07:48.831Z,7.60
2019-02-11T19:10:18.518Z,7.57
2019-02-11T19:12:47.853Z,7.53
2019-02-11T19:15:17.340Z,7.53
2019-02-11T19:17:47.088Z,7.48
2019-02-11T19:20:17.026Z,7.50
2019-02-11T19:22:46.409Z,7.50
2019-02-11T19:25:15.843Z,7.45
2019-02-11T19:27:45.238Z,7.41
2019-02-11T19:30:17.617Z,7.45
2019-02-11T19:32:47.689Z,7.44
2019-02-11T19:35:17.171Z,7.36
2019-02-11T19:37:46.485Z,7.36
2019-02-11T19:40:16.092Z,7.34
2019-02-11T19:42:45.442Z,7.33
2019-02-11T19:45:16.392Z,7.33
2019-02-11T19:47:46.169Z,7.32
2019-02-11T19:50:16.425Z,7.34
2019-02-11T19:52:47.007Z,7.32
2019-02-11T19:55:16.418Z,7.29
2019-02-11T19:57:45.796Z,7.22
2019-02-11T20:00:19.891Z,7.20
2019-02-11T20:02:49.893Z,7.18
2019-02-11T20:05:19.374Z,7.16
2019-02-11T20:07:48.707Z,7.15
2019-02-11T20:10:18.485Z,7.19
2019-02-11T20:12:48.086Z,7.21
2019-02-11T20:15:19.127Z,7.19
2019-02-11T20:17:48.544Z,7.19
2019-02-11T20:20:19.781Z,7.25
2019-02-11T20:22:49.863Z,7.16
2019-02-11T20:25:19.635Z,7.17
2019-02-11T20:27:48.995Z,7.16
2019-02-11T20:30:20.780Z,7.13
2019-02-11T20:32:50.131Z,7.09
2019-02-11T20:35:19.587Z,7.11
2019-02-11T20:37:49.342Z,7.18
2019-02-11T20:40:22.703Z,7.28
2019-02-11T20:42:52.244Z,7.26
2019-02-11T20:45:24.063Z,7.21
2019-02-11T20:47:53.511Z,7.18
2019-02-11T20:50:22.891Z,7.17
2019-02-11T20:52:52.297Z,7.17
2019-02-11T20:55:21.693Z,7.14
2019-02-11T20:57:54.603Z,7.14
2019-02-11T21:00:24.329Z,7.15
2019-02-11T21:02:53.765Z,7.23
2019-02-11T21:05:23.338Z,7.30
2019-02-11T21:07:52.733Z,7.38
2019-02-11T21:10:22.190Z,7.42
2019-02-11T21:12:51.590Z,7.50
2019-02-11T21:15:20.920Z,7.50
2019-02-11T21:17:50.325Z,7.53
2019-02-11T21:20:31.106Z,7.40
2019-02-11T21:23:00.565Z,7.43
2019-02-11T21:25:29.936Z,7.47
2019-02-11T21:27:59.576Z,7.60
2019-02-11T21:30:28.898Z,7.60
2019-02-11T21:32:58.333Z,7.60
2019-02-11T21:35:27.730Z,7.53
2019-02-11T21:37:57.077Z,7.46
2019-02-11T21:40:26.479Z,7.38
2019-02-11T21:42:55.889Z,6.95
2019-02-11T21:45:25.250Z,6.58
2019-02-11T21:47:54.598Z,6.35
2019-02-11T21:50:26.818Z,6.21
2019-02-11T21:52:55.125Z,5.98
2019-02-11T21:55:24.521Z,5.81
2019-02-11T21:57:54.077Z,5.90
2019-02-11T22:00:23.686Z,5.84
2019-02-11T22:02:53.097Z,5.56
2019-02-11T22:05:22.573Z,5.20
2019-02-11T22:07:52.025Z,4.89
2019-02-11T22:10:21.499Z,4.76
2019-02-11T22:12:50.969Z,4.59
2019-02-11T22:15:20.533Z,4.24
2019-02-11T22:17:50.013Z,3.97
2019-02-11T22:20:19.634Z,3.72
2019-02-11T22:22:49.263Z,3.59
2019-02-11T22:25:18.616Z,3.40
2019-02-11T22:27:48.041Z,3.24
2019-02-11T22:30:19.499Z,3.02
2019-02-11T22:32:48.945Z,2.92
2019-02-11T22:35:18.323Z,2.81
2019-02-11T22:37:48.157Z,2.68
2019-02-11T22:40:17.669Z,2.56
2019-02-11T22:42:47.093Z,2.48
2019-02-11T22:45:18.352Z,2.37
2019-02-11T22:47:47.816Z,2.37
2019-02-11T22:50:17.142Z,2.35
2019-02-11T22:52:46.982Z,2.44
2019-02-11T22:55:16.441Z,2.45
2019-02-11T22:57:45.840Z,2.50
2019-02-11T23:00:49.130Z,2.55
2019-02-11T23:03:18.544Z,2.55
2019-02-11T23:05:48.052Z,2.50
2019-02-11T23:08:17.376Z,2.46
2019-02-11T23:10:47.186Z,2.57
2019-02-11T23:13:16.635Z,2.57
2019-02-11T23:15:46.047Z,2.57
2019-02-11T23:18:15.796Z,2.63
2019-02-11T23:20:51.725Z,2.70
2019-02-11T23:23:16.392Z,2.73
2019-02-11T23:25:45.868Z,2.73
2019-02-11T23:28:15.345Z,2.79
2019-02-11T23:30:44.681Z,2.80
2019-02-11T23:33:14.084Z,2.78
2019-02-11T23:35:43.539Z,2.82
2019-02-11T23:38:12.976Z,2.74
2019-02-11T23:40:42.450Z,2.73
2019-02-11T23:43:11.798Z,2.66
2019-02-11T23:45:41.172Z,2.64
2019-02-11T23:48:10.607Z,2.57
2019-02-11T23:50:40.012Z,2.59
2019-02-11T23:53:09.483Z,2.56
2019-02-11T23:55:38.874Z,2.54
2019-02-11T23:58:08.300Z,2.56
